Time;durP1;ratioP1;P1;durP2;ratioP2;P2;SDS_P1;SDS_P2;PMS_P1;PMS_P2;Temp;Humidity;BMP_temperature;BMP_pressure;BME280_temperature;BME280_humidity;BME280_pressure;Samples;Min_cycle;Max_cycle;Signal;HPM_P1;HPM_P2
2023/06/04 00:01:18;;;;;;;10.55;1.30;;;12.20;89.30;;;;;;5088056;28;20373;-58
2023/06/04 00:03:47;;;;;;;6.97;1.75;;;;;;;;;;5069461;28;20045;-58
2023/06/04 00:06:15;;;;;;;8.98;1.90;;;12.00;89.90;;;;;;5067845;28;20052;-57
2023/06/04 00:08:43;;;;;;;7.38;1.40;;;12.00;90.50;;;;;;5067037;28;20056;-57
2023/06/04 00:11:11;;;;;;;12.25;1.83;;;12.00;91.00;;;;;;5067467;28;20040;-57
2023/06/04 00:13:38;;;;;;;10.00;2.03;;;11.90;91.20;;;;;;5066966;28;20051;-59
2023/06/04 00:16:06;;;;;;;8.00;1.77;;;11.90;91.80;;;;;;5048189;28;20060;-58
2023/06/04 00:18:34;;;;;;;14.43;2.97;;;11.80;92.00;;;;;;5063944;28;20227;-57
2023/06/04 00:21:02;;;;;;;6.90;1.50;;;11.70;93.30;;;;;;5066472;28;20060;-57
2023/06/04 00:23:31;;;;;;;13.00;2.33;;;11.70;93.50;;;;;;5066438;28;20040;-58
2023/06/04 00:25:59;;;;;;;8.80;1.88;;;11.70;94.00;;;;;;5064705;28;20052;-58
2023/06/04 00:28:27;;;;;;;8.50;2.30;;;11.70;94.60;;;;;;5069200;28;20041;-57
2023/06/04 00:30:55;;;;;;;6.65;2.30;;;11.50;94.90;;;;;;5065946;28;20507;-57
2023/06/04 00:33:23;;;;;;;8.80;1.90;;;11.50;95.20;;;;;;5065651;28;20404;-57
2023/06/04 00:35:51;;;;;;;7.47;2.00;;;11.50;96.00;;;;;;5064263;28;20071;-57
2023/06/04 00:38:19;;;;;;;15.65;2.28;;;11.50;96.30;;;;;;5057936;28;20051;-57
2023/06/04 00:40:47;;;;;;;8.02;2.30;;;11.40;96.70;;;;;;5067109;28;20063;-57
2023/06/04 00:43:15;;;;;;;11.88;3.85;;;11.40;97.00;;;;;;5054191;28;20052;-58
2023/06/04 00:45:43;;;;;;;15.38;2.42;;;11.40;97.30;;;;;;5063593;28;20514;-58
2023/06/04 00:48:12;;;;;;;11.32;2.00;;;11.40;98.10;;;;;;5067812;28;20044;-57
2023/06/04 00:50:40;;;;;;;7.75;2.22;;;11.30;98.50;;;;;;5069256;28;20501;-57
2023/06/04 00:53:10;;;;;;;6.95;1.85;;;11.30;99.00;;;;;;5069063;28;20055;-57
2023/06/04 00:55:38;;;;;;;10.55;2.05;;;11.20;99.60;;;;;;5068676;28;20063;-57
2023/06/04 00:58:06;;;;;;;6.13;1.77;;;11.20;99.70;;;;;;5074619;28;20060;-58
2023/06/04 01:00:34;;;;;;;5.35;2.03;;;11.20;99.90;;;;;;5062696;28;20033;-58
2023/06/04 01:03:14;;;;;;;13.30;2.15;;;11.20;99.90;;;;;;5063411;28;20393;-58
2023/06/04 01:05:46;;;;;;;;;;;11.10;99.90;;;;;;5063258;28;20044;-56
2023/06/04 01:08:15;;;;;;;9.75;1.98;;;11.10;99.90;;;;;;5069418;28;19931;-58
2023/06/04 01:10:53;;;;;;;6.15;1.95;;;11.10;99.90;;;;;;5069686;28;20049;-58
2023/06/04 01:13:21;;;;;;;5.07;2.00;;;11.00;99.90;;;;;;5067730;28;20408;-58
2023/06/04 01:15:50;;;;;;;9.40;2.00;;;11.00;99.90;;;;;;5069158;28;20253;-57
2023/06/04 01:18:28;;;;;;;11.40;2.60;;;11.00;99.90;;;;;;5069380;28;20056;-59
2023/06/04 01:21:07;;;;;;;5.28;1.80;;;10.90;99.90;;;;;;5051838;28;20503;-57
2023/06/04 01:23:58;;;;;;;10.10;2.23;;;10.90;99.90;;;;;;5069721;28;20048;-58
2023/06/04 01:26:28;;;;;;;9.38;2.70;;;10.80;99.90;;;;;;5049692;28;20317;-58
2023/06/04 01:28:58;;;;;;;7.60;2.50;;;10.70;99.90;;;;;;5070993;28;20044;-58
2023/06/04 01:31:26;;;;;;;5.50;1.80;;;10.70;99.90;;;;;;5058270;28;20071;-57
2023/06/04 01:33:57;;;;;;;9.02;2.10;;;10.60;99.90;;;;;;5052527;28;20499;-57
2023/06/04 01:36:25;;;;;;;9.75;2.53;;;10.50;99.90;;;;;;5054547;28;20048;-57
2023/06/04 01:38:53;;;;;;;7.22;2.08;;;10.40;99.90;;;;;;5071946;28;20063;-57
2023/06/04 01:41:21;;;;;;;8.77;2.20;;;10.30;99.90;;;;;;5071013;28;20055;-57
2023/06/04 01:43:49;;;;;;;8.45;2.08;;;10.20;99.90;;;;;;5071271;28;20059;-56
2023/06/04 01:46:17;;;;;;;9.70;2.10;;;10.00;99.90;;;;;;5061813;28;20048;-57
2023/06/04 01:48:48;;;;;;;9.30;2.28;;;10.10;99.90;;;;;;5065521;28;20032;-57
2023/06/04 01:51:16;;;;;;;12.55;2.92;;;10.10;99.90;;;;;;5071021;28;20388;-57
2023/06/04 01:53:44;;;;;;;9.07;2.85;;;10.00;99.90;;;;;;5072401;28;20488;-57
2023/06/04 01:56:12;;;;;;;12.50;2.35;;;10.00;99.90;;;;;;5070119;28;20049;-56
2023/06/04 01:58:41;;;;;;;12.35;2.78;;;9.90;99.90;;;;;;5075926;28;20400;-57
2023/06/04 02:01:09;;;;;;;11.93;2.40;;;9.90;99.90;;;;;;5071345;28;20045;-56
2023/06/04 02:03:40;;;;;;;7.85;3.38;;;9.80;99.90;;;;;;5070884;28;20396;-57
2023/06/04 02:06:08;;;;;;;5.20;1.98;;;9.80;99.90;;;;;;5050496;28;20056;-56
2023/06/04 02:08:36;;;;;;;8.10;2.15;;;9.70;99.90;;;;;;5060994;28;20056;-56
2023/06/04 02:11:04;;;;;;;7.05;1.75;;;9.70;99.90;;;;;;5071878;28;20053;-57
2023/06/04 02:13:32;;;;;;;7.70;2.78;;;9.70;99.90;;;;;;5070586;28;20392;-56
2023/06/04 02:16:00;;;;;;;5.45;2.10;;;9.70;99.90;;;;;;5071844;28;20044;-56
2023/06/04 02:18:28;;;;;;;7.75;2.22;;;9.70;99.90;;;;;;5069659;28;20048;-57
2023/06/04 02:20:58;;;;;;;7.50;2.50;;;9.60;99.90;;;;;;5070405;28;20510;-56
2023/06/04 02:23:26;;;;;;;7.07;1.55;;;9.60;99.90;;;;;;5061902;28;20531;-56
2023/06/04 02:25:54;;;;;;;8.68;3.10;;;9.50;99.90;;;;;;5070316;28;20051;-56
2023/06/04 02:28:23;;;;;;;8.65;2.03;;;9.50;99.90;;;;;;5077744;28;20044;-56
2023/06/04 02:30:51;;;;;;;6.85;2.15;;;9.50;99.90;;;;;;5065098;28;20029;-56
2023/06/04 02:33:20;;;;;;;5.72;2.13;;;9.40;99.90;;;;;;5050350;28;20412;-57
2023/06/04 02:35:49;;;;;;;6.32;2.58;;;9.40;99.90;;;;;;5051567;28;20060;-56
2023/06/04 02:38:18;;;;;;;8.32;2.60;;;9.30;99.90;;;;;;5056227;28;20404;-56
2023/06/04 02:40:46;;;;;;;10.90;2.25;;;9.30;99.90;;;;;;5071223;28;20048;-55
2023/06/04 02:43:15;;;;;;;7.15;2.95;;;9.30;99.90;;;;;;5068889;28;20063;-55
2023/06/04 02:45:42;;;;;;;10.48;2.75;;;9.30;99.90;;;;;;5071012;28;20060;-55
2023/06/04 02:48:10;;;;;;;6.88;2.30;;;9.20;99.90;;;;;;5071194;28;20690;-55
2023/06/04 02:50:39;;;;;;;6.25;2.53;;;9.20;99.90;;;;;;5070560;28;20049;-56
2023/06/04 02:53:07;;;;;;;11.63;2.63;;;9.20;99.90;;;;;;5070583;28;20419;-56
2023/06/04 02:55:36;;;;;;;8.25;2.55;;;9.20;99.90;;;;;;5070011;28;20464;-56
2023/06/04 02:58:03;;;;;;;6.97;2.50;;;9.10;99.90;;;;;;5076485;28;20052;-56
2023/06/04 03:00:31;;;;;;;8.70;3.10;;;9.10;99.90;;;;;;5070128;28;20487;-55
2023/06/04 03:03:01;;;;;;;6.60;2.33;;;9.10;99.90;;;;;;5070012;28;20056;-57
2023/06/04 03:05:32;;;;;;;10.88;3.05;;;9.10;99.90;;;;;;5070677;28;20059;-57
2023/06/04 03:08:02;;;;;;;6.53;2.50;;;9.10;99.90;;;;;;5068895;28;20388;-55
2023/06/04 03:10:31;;;;;;;5.93;2.65;;;9.00;99.90;;;;;;5070118;28;20043;-57
2023/06/04 03:12:58;;;;;;;8.52;2.67;;;9.00;99.90;;;;;;5070037;28;20388;-56
2023/06/04 03:15:26;;;;;;;12.40;2.83;;;9.00;99.90;;;;;;5071149;28;20527;-57
2023/06/04 03:17:54;;;;;;;13.60;2.47;;;8.90;99.90;;;;;;5070039;28;20045;-56
2023/06/04 03:20:24;;;;;;;14.20;2.80;;;8.90;99.90;;;;;;5069357;28;20044;-56
2023/06/04 03:22:52;;;;;;;9.73;2.42;;;8.80;99.90;;;;;;5070852;28;20067;-55
2023/06/04 03:25:20;;;;;;;7.43;2.53;;;8.80;99.90;;;;;;5051840;28;20041;-56
2023/06/04 03:27:48;;;;;;;7.53;2.60;;;8.80;99.90;;;;;;5078006;28;20368;-56
2023/06/04 03:30:17;;;;;;;5.35;2.17;;;8.70;99.90;;;;;;5068366;28;20041;-55
2023/06/04 03:33:05;;;;;;;13.63;3.03;;;8.70;99.90;;;;;;5069707;28;20043;-56
2023/06/04 03:35:33;;;;;;;8.00;2.75;;;8.60;99.90;;;;;;5069723;28;20049;-56
2023/06/04 03:38:01;;;;;;;12.40;3.22;;;8.60;99.90;;;;;;5069691;28;20071;-55
2023/06/04 03:40:30;;;;;;;6.97;2.70;;;8.60;99.90;;;;;;5069724;28;20044;-56
2023/06/04 03:43:00;;;;;;;9.43;3.22;;;8.50;99.90;;;;;;5068889;28;20388;-55
2023/06/04 03:45:31;;;;;;;11.45;3.63;;;8.50;99.90;;;;;;5069724;28;20052;-56
2023/06/04 03:48:00;;;;;;;7.15;3.05;;;8.50;99.90;;;;;;5064022;28;20057;-56
2023/06/04 03:50:29;;;;;;;11.73;3.88;;;8.50;99.90;;;;;;5069687;28;20041;-55
2023/06/04 03:52:57;;;;;;;11.00;3.40;;;8.50;99.90;;;;;;5069602;28;20040;-56
2023/06/04 03:55:25;;;;;;;7.80;3.22;;;8.50;99.90;;;;;;5069935;28;20045;-56
2023/06/04 03:57:54;;;;;;;10.30;2.97;;;8.50;99.90;;;;;;5076919;28;20048;-56
2023/06/04 04:00:22;;;;;;;17.02;4.20;;;8.50;99.90;;;;;;5069535;28;20037;-56
2023/06/04 04:02:53;;;;;;;12.23;4.72;;;8.50;99.90;;;;;;5072869;28;20377;-57
2023/06/04 04:05:25;;;;;;;15.20;5.13;;;8.40;99.90;;;;;;5073274;28;20059;-56
2023/06/04 04:07:54;;;;;;;14.88;4.93;;;8.50;99.90;;;;;;5072375;28;20048;-56
2023/06/04 04:10:26;;;;;;;12.55;5.32;;;8.60;99.90;;;;;;5072920;28;20075;-56
2023/06/04 04:12:54;;;;;;;13.40;4.28;;;8.50;99.90;;;;;;5073032;28;20045;-56
2023/06/04 04:15:24;;;;;;;11.50;4.70;;;8.60;99.90;;;;;;5072898;28;20045;-56
2023/06/04 04:17:53;;;;;;;12.93;5.55;;;8.60;99.90;;;;;;5071964;28;20051;-56
2023/06/04 04:20:21;;;;;;;8.55;4.47;;;8.60;99.90;;;;;;5068058;28;20504;-56
2023/06/04 04:22:57;;;;;;;8.60;4.05;;;8.60;99.90;;;;;;5052760;28;20553;-56
2023/06/04 04:25:27;;;;;;;13.00;5.05;;;8.70;99.90;;;;;;5052646;28;20048;-56
2023/06/04 04:27:56;;;;;;;9.75;4.45;;;8.60;99.90;;;;;;5072117;28;20052;-56
2023/06/04 04:30:28;;;;;;;14.70;5.45;;;8.60;99.90;;;;;;5072577;28;20504;-55
2023/06/04 04:32:56;;;;;;;16.05;5.10;;;8.60;99.90;;;;;;5072511;28;20052;-55
2023/06/04 04:35:32;;;;;;;16.75;4.95;;;8.60;99.90;;;;;;5072550;28;20060;-55
2023/06/04 04:38:05;;;;;;;16.13;4.65;;;8.60;99.90;;;;;;5072645;28;20040;-56
2023/06/04 04:40:38;;;;;;;10.80;5.10;;;8.60;99.90;;;;;;5072589;28;20052;-54
2023/06/04 04:43:08;;;;;;;;;;;8.50;99.90;;;;;;5072907;28;20041;-55
2023/06/04 04:45:36;;;;;;;12.02;5.15;;;8.50;99.90;;;;;;5072636;28;20268;-55
2023/06/04 04:48:06;;;;;;;11.52;4.40;;;8.60;99.90;;;;;;5061231;28;20056;-55
2023/06/04 04:50:35;;;;;;;16.33;4.88;;;8.60;99.90;;;;;;5068954;28;20045;-57
2023/06/04 04:53:04;;;;;;;14.73;5.30;;;8.60;99.90;;;;;;5051492;28;20052;-57
2023/06/04 04:55:33;;;;;;;18.48;6.35;;;8.60;99.90;;;;;;5068561;28;20498;-56
2023/06/04 04:58:01;;;;;;;14.63;5.93;;;8.60;99.90;;;;;;5077165;28;20514;-57
2023/06/04 05:00:30;;;;;;;18.02;6.85;;;8.70;99.90;;;;;;5052146;28;20040;-56
2023/06/04 05:02:58;;;;;;;13.73;6.50;;;8.70;99.90;;;;;;5055112;28;20056;-56
2023/06/04 05:05:26;;;;;;;19.88;7.10;;;8.70;99.90;;;;;;5064845;28;20045;-56
2023/06/04 05:07:54;;;;;;;13.40;6.32;;;8.80;99.90;;;;;;5072786;28;20048;-57
2023/06/04 05:10:28;;;;;;;18.38;7.43;;;8.80;99.90;;;;;;5050541;28;20045;-56
2023/06/04 05:12:58;;;;;;;18.80;6.82;;;8.80;99.90;;;;;;5065390;28;20048;-57
2023/06/04 05:15:34;;;;;;;16.02;7.00;;;9.00;99.90;;;;;;5064683;28;20048;-56
2023/06/04 05:18:03;;;;;;;16.88;7.90;;;8.90;99.90;;;;;;5063469;28;20051;-56
2023/06/04 05:20:37;;;;;;;22.02;7.97;;;9.00;99.90;;;;;;5066629;28;20056;-56
2023/06/04 05:23:08;;;;;;;17.70;7.90;;;9.00;99.90;;;;;;5080152;28;20055;-55
2023/06/04 05:25:37;;;;;;;16.25;6.97;;;9.10;99.90;;;;;;5062867;28;20055;-63
2023/06/04 05:28:06;;;;;;;15.70;6.60;;;9.10;99.90;;;;;;5071508;28;20058;-56
2023/06/04 05:30:35;;;;;;;15.52;7.88;;;9.20;99.90;;;;;;5065119;28;20041;-58
2023/06/04 05:33:03;;;;;;;18.17;7.13;;;9.20;99.90;;;;;;5064431;28;20048;-57
2023/06/04 05:35:35;;;;;;;17.55;6.97;;;9.20;99.90;;;;;;5065025;28;20392;-56
2023/06/04 05:38:03;;;;;;;15.10;7.38;;;9.30;99.90;;;;;;5076175;28;20048;-57
2023/06/04 05:40:31;;;;;;;14.38;6.32;;;9.30;99.90;;;;;;5056428;28;20049;-57
2023/06/04 05:42:59;;;;;;;14.77;6.43;;;9.40;99.90;;;;;;5065594;28;20045;-56
2023/06/04 05:45:27;;;;;;;13.43;5.53;;;9.40;99.90;;;;;;5045856;28;20060;-57
2023/06/04 05:47:55;;;;;;;14.00;6.72;;;9.40;99.90;;;;;;5063041;28;20059;-56
2023/06/04 05:50:26;;;;;;;15.75;5.43;;;9.50;99.90;;;;;;5044807;28;20381;-56
2023/06/04 05:52:55;;;;;;;12.33;4.97;;;9.50;99.90;;;;;;5069429;28;20671;-57
2023/06/04 05:55:24;;;;;;;12.38;5.32;;;9.60;99.90;;;;;;5074126;28;20048;-56
2023/06/04 05:57:54;;;;;;;12.27;4.60;;;9.60;99.90;;;;;;5061048;28;20052;-57
2023/06/04 06:00:23;;;;;;;;;;;9.70;99.90;;;;;;5060654;28;20618;-56
2023/06/04 06:02:53;;;;;;;14.00;4.60;;;9.70;99.90;;;;;;5062592;28;19920;-57
2023/06/04 06:05:35;;;;;;;12.02;5.22;;;9.80;99.90;;;;;;5064794;28;20053;-56
2023/06/04 06:08:04;;;;;;;12.45;4.80;;;9.80;99.90;;;;;;5074687;28;20044;-56
2023/06/04 06:10:36;;;;;;;11.52;4.72;;;9.90;99.90;;;;;;5065348;28;20033;-56
2023/06/04 06:13:04;;;;;;;11.75;4.25;;;9.90;99.90;;;;;;5077989;28;20044;-55
2023/06/04 06:15:32;;;;;;;12.48;4.80;;;10.00;99.90;;;;;;5086255;28;20047;-55
2023/06/04 06:18:00;;;;;;;14.48;5.03;;;10.10;99.90;;;;;;5064913;28;20044;-56
2023/06/04 06:20:29;;;;;;;11.18;5.32;;;10.10;99.90;;;;;;5068019;28;20379;-57
2023/06/04 06:22:57;;;;;;;9.82;4.78;;;10.20;99.90;;;;;;5056694;28;20111;-56
2023/06/04 06:25:26;;;;;;;13.85;4.80;;;10.30;99.90;;;;;;5064507;28;20033;-57
2023/06/04 06:28:03;;;;;;;15.07;6.90;;;10.40;99.90;;;;;;5065346;28;20484;-56
2023/06/04 06:30:32;;;;;;;10.43;5.03;;;10.40;99.90;;;;;;5062692;28;20040;-57
2023/06/04 06:33:00;;;;;;;9.85;4.28;;;10.50;99.90;;;;;;5063448;28;20040;-57
2023/06/04 06:35:28;;;;;;;8.45;4.22;;;10.60;99.90;;;;;;5064869;28;20072;-55
2023/06/04 06:37:56;;;;;;;13.55;4.95;;;10.50;99.90;;;;;;5074972;28;20052;-56
2023/06/04 06:40:23;;;;;;;11.02;4.88;;;10.60;99.90;;;;;;5066695;28;20067;-56
2023/06/04 06:42:51;;;;;;;7.80;4.30;;;10.70;99.90;;;;;;5064578;28;20507;-57
2023/06/04 06:45:19;;;;;;;9.73;3.78;;;10.70;99.90;;;;;;5067117;28;20058;-56
2023/06/04 06:47:48;;;;;;;8.27;3.97;;;10.70;99.90;;;;;;5070611;28;20048;-56
2023/06/04 06:50:17;;;;;;;8.83;3.93;;;10.80;99.90;;;;;;5066454;28;20047;-57
2023/06/04 06:52:45;;;;;;;10.63;3.83;;;11.00;99.90;;;;;;5075376;28;20289;-56
2023/06/04 06:55:13;;;;;;;11.63;4.40;;;11.00;99.90;;;;;;5082560;28;20044;-56
2023/06/04 06:57:41;;;;;;;13.38;3.95;;;11.10;99.90;;;;;;5066675;28;20480;-56
2023/06/04 07:00:10;;;;;;;9.07;4.20;;;11.20;99.90;;;;;;5065918;28;20519;-56
2023/06/04 07:02:38;;;;;;;10.80;5.30;;;11.20;99.90;;;;;;5057485;28;20049;-56
2023/06/04 07:05:06;;;;;;;10.20;4.32;;;11.20;99.90;;;;;;5049438;28;20059;-56
2023/06/04 07:07:35;;;;;;;9.15;3.88;;;11.30;99.90;;;;;;5064243;28;20044;-56
2023/06/04 07:10:03;;;;;;;13.07;4.85;;;11.40;99.90;;;;;;5061688;28;20064;-55
2023/06/04 07:12:31;;;;;;;11.15;4.68;;;11.40;99.90;;;;;;5057737;28;20051;-56
2023/06/04 07:14:59;;;;;;;10.55;5.13;;;11.50;99.90;;;;;;5067756;28;20068;-57
2023/06/04 07:17:27;;;;;;;10.82;4.70;;;11.50;99.90;;;;;;5067258;28;20049;-57
2023/06/04 07:19:54;;;;;;;9.73;4.25;;;11.60;99.90;;;;;;5067774;28;20063;-56
2023/06/04 07:22:22;;;;;;;13.60;4.63;;;11.70;99.90;;;;;;5071945;28;20055;-57
2023/06/04 07:24:50;;;;;;;8.65;3.97;;;11.80;99.90;;;;;;5084662;28;20080;-56
2023/06/04 07:27:19;;;;;;;9.82;4.00;;;11.90;99.90;;;;;;5033082;28;20521;-56
2023/06/04 07:29:47;;;;;;;7.22;3.70;;;11.90;99.90;;;;;;5067108;28;20377;-57
2023/06/04 07:32:15;;;;;;;11.43;4.90;;;12.10;99.90;;;;;;5050833;28;20590;-56
2023/06/04 07:34:43;;;;;;;9.63;3.28;;;12.10;99.90;;;;;;5067599;28;20040;-57
2023/06/04 07:37:12;;;;;;;6.22;3.20;;;12.20;99.90;;;;;;5068503;28;20052;-57
2023/06/04 07:39:40;;;;;;;6.28;3.00;;;12.20;99.90;;;;;;5071250;28;20053;-56
2023/06/04 07:42:08;;;;;;;4.75;2.58;;;12.40;99.90;;;;;;5059310;28;20056;-58
2023/06/04 07:44:38;;;;;;;6.30;3.55;;;12.40;99.90;;;;;;5071351;28;20056;-57
2023/06/04 07:47:06;;;;;;;6.63;3.45;;;12.50;99.90;;;;;;5071486;28;20045;-57
2023/06/04 07:49:34;;;;;;;4.03;2.40;;;12.60;99.90;;;;;;5062925;28;20115;-57
2023/06/04 07:52:11;;;;;;;6.93;2.70;;;12.70;99.90;;;;;;5060365;28;20052;-57
2023/06/04 07:54:41;;;;;;;6.60;3.78;;;12.70;99.90;;;;;;5091696;28;20102;-57
2023/06/04 07:57:10;;;;;;;6.35;2.60;;;12.80;99.90;;;;;;5057215;28;20053;-58
2023/06/04 07:59:38;;;;;;;5.95;3.22;;;12.90;99.90;;;;;;5062725;28;20049;-58
2023/06/04 08:02:06;;;;;;;6.63;3.00;;;13.00;99.90;;;;;;5064918;28;20041;-55
2023/06/04 08:04:33;;;;;;;9.48;2.63;;;13.10;99.90;;;;;;5052190;28;20056;-57
2023/06/04 08:07:02;;;;;;;11.50;2.88;;;13.20;99.90;;;;;;5059719;28;20049;-57
2023/06/04 08:09:30;;;;;;;5.22;2.30;;;13.30;99.90;;;;;;5070749;28;20056;-57
2023/06/04 08:11:58;;;;;;;7.00;2.42;;;13.40;99.90;;;;;;5069724;28;20400;-56
2023/06/04 08:14:27;;;;;;;5.68;2.80;;;13.50;99.90;;;;;;5056540;28;20053;-57
2023/06/04 08:16:55;;;;;;;6.60;2.88;;;13.60;99.90;;;;;;5058939;28;20059;-56
2023/06/04 08:19:32;;;;;;;7.25;2.85;;;13.70;99.90;;;;;;5058366;28;20475;-57
2023/06/04 08:22:00;;;;;;;5.53;2.28;;;13.80;99.90;;;;;;5068011;28;20491;-58
2023/06/04 08:24:41;;;;;;;6.05;2.85;;;13.80;99.90;;;;;;5069292;28;20064;-56
2023/06/04 08:27:17;;;;;;;9.55;3.10;;;13.90;99.90;;;;;;5066113;28;20059;-56
2023/06/04 08:29:55;;;;;;;6.15;2.60;;;14.00;99.90;;;;;;5065947;28;20056;-55
2023/06/04 08:32:42;;;;;;;6.65;2.75;;;14.10;99.90;;;;;;5062937;28;20495;-56
2023/06/04 08:35:18;;;;;;;5.28;2.78;;;14.20;99.90;;;;;;5060540;28;20049;-57
2023/06/04 08:37:46;;;;;;;5.57;2.42;;;14.20;99.90;;;;;;5061101;28;20045;-57
2023/06/04 08:40:13;;;;;;;9.05;2.65;;;14.30;99.90;;;;;;5067640;28;20045;-57
2023/06/04 08:42:44;;;;;;;6.35;2.60;;;14.40;99.90;;;;;;5059006;28;20060;-57
2023/06/04 08:45:15;;;;;;;7.68;2.72;;;14.50;99.90;;;;;;5065721;28;20048;-56
2023/06/04 08:47:47;;;;;;;4.47;2.35;;;14.60;99.90;;;;;;5067502;28;20052;-56
2023/06/04 08:50:21;;;;;;;5.88;3.03;;;14.60;99.90;;;;;;5070038;28;20040;-56
2023/06/04 08:52:54;;;;;;;8.05;2.40;;;14.70;99.90;;;;;;5075698;28;20044;-58
2023/06/04 08:55:22;;;;;;;7.63;2.60;;;14.80;99.90;;;;;;5059138;28;20040;-60
2023/06/04 08:57:51;;;;;;;5.90;2.60;;;14.90;99.90;;;;;;5057710;28;20400;-57
2023/06/04 09:00:20;;;;;;;6.78;2.22;;;15.00;99.90;;;;;;5069927;28;20053;-56
2023/06/04 09:02:49;;;;;;;7.90;2.25;;;15.00;99.90;;;;;;5065788;28;20040;-56
2023/06/04 09:05:22;;;;;;;7.10;2.75;;;15.10;99.90;;;;;;5057146;28;20060;-56
2023/06/04 09:07:54;;;;;;;6.68;2.45;;;15.20;99.90;;;;;;5071131;28;20041;-57
2023/06/04 09:10:25;;;;;;;6.65;2.88;;;15.30;99.90;;;;;;5068091;28;20044;-57
2023/06/04 09:12:54;;;;;;;5.57;2.55;;;15.40;99.90;;;;;;5056745;28;20044;-59
2023/06/04 09:15:22;;;;;;;8.85;2.83;;;15.50;99.90;;;;;;5049979;28;20041;-57
2023/06/04 09:17:50;;;;;;;5.32;2.10;;;15.60;99.90;;;;;;5059957;28;20052;-58
2023/06/04 09:20:20;;;;;;;8.07;3.20;;;15.70;99.90;;;;;;5067606;28;20484;-57
2023/06/04 09:22:48;;;;;;;4.35;2.78;;;15.70;99.90;;;;;;5059203;28;20052;-56
2023/06/04 09:25:25;;;;;;;8.77;2.70;;;15.90;99.90;;;;;;5059598;28;20049;-56
2023/06/04 09:28:05;;;;;;;8.05;2.92;;;15.90;99.90;;;;;;5072367;28;20051;-58
2023/06/04 09:30:33;;;;;;;6.82;2.67;;;16.00;99.90;;;;;;5059578;28;20033;-58
2023/06/04 09:33:12;;;;;;;6.90;2.38;;;16.10;99.90;;;;;;5059639;28;20044;-58
2023/06/04 09:35:40;;;;;;;6.65;2.72;;;16.20;99.90;;;;;;5066419;28;20345;-57
2023/06/04 09:38:08;;;;;;;7.13;2.45;;;16.30;99.90;;;;;;5064310;28;20052;-58
2023/06/04 09:40:37;;;;;;;4.88;2.30;;;16.60;99.90;;;;;;5050379;28;20400;-58
2023/06/04 09:43:06;;;;;;;4.90;2.10;;;16.60;99.90;;;;;;5059768;28;20057;-57
2023/06/04 09:45:35;;;;;;;6.72;2.35;;;16.80;99.90;;;;;;5054482;28;20055;-58
2023/06/04 09:48:04;;;;;;;6.78;2.85;;;17.00;99.90;;;;;;5058156;28;20519;-58
2023/06/04 09:50:38;;;;;;;6.53;2.40;;;17.00;99.90;;;;;;5062156;28;20056;-59
2023/06/04 09:53:17;;;;;;;5.22;2.30;;;17.20;99.90;;;;;;5067689;28;20052;-57
2023/06/04 09:55:58;;;;;;;4.53;2.47;;;17.30;99.90;;;;;;5068970;28;20531;-57
2023/06/04 09:58:28;;;;;;;6.88;2.50;;;17.40;99.90;;;;;;5057946;28;20032;-59
2023/06/04 10:00:59;;;;;;;5.93;2.50;;;17.50;99.90;;;;;;5068804;28;20044;-58
2023/06/04 10:03:36;;;;;;;6.72;2.90;;;17.60;99.90;;;;;;5067603;28;20045;-58
2023/06/04 10:06:06;;;;;;;8.70;2.70;;;17.80;99.90;;;;;;5068674;28;20045;-57
2023/06/04 10:08:34;;;;;;;5.65;2.45;;;17.90;99.90;;;;;;5068663;28;20357;-57
2023/06/04 10:11:05;;;;;;;5.10;2.08;;;18.10;99.90;;;;;;5068543;28;20052;-58
2023/06/04 10:13:56;;;;;;;5.57;2.67;;;18.10;99.90;;;;;;5063764;28;20047;-57
2023/06/04 10:16:26;;;;;;;4.30;2.38;;;18.30;99.90;;;;;;5068011;28;20040;-58
2023/06/04 10:19:05;;;;;;;7.18;2.75;;;18.40;99.90;;;;;;5078042;28;20056;-58
2023/06/04 10:21:35;;;;;;;5.55;2.53;;;18.50;99.90;;;;;;5067879;28;20353;-58
2023/06/04 10:24:03;;;;;;;4.55;2.50;;;18.50;99.40;;;;;;5050709;28;20052;-57
2023/06/04 10:26:35;;;;;;;5.13;2.33;;;18.60;99.70;;;;;;5055873;28;20044;-58
2023/06/04 10:29:03;;;;;;;6.18;2.60;;;18.70;99.40;;;;;;5054795;28;20040;-57
2023/06/04 10:31:32;;;;;;;5.60;2.60;;;18.90;99.00;;;;;;5066252;28;20063;-57
2023/06/04 10:34:00;;;;;;;4.00;2.40;;;18.90;99.30;;;;;;5058031;28;20051;-58
2023/06/04 10:36:29;;;;;;;7.15;2.70;;;18.90;98.30;;;;;;5065038;28;20055;-57
2023/06/04 10:38:57;;;;;;;6.32;2.70;;;19.00;98.60;;;;;;5069662;28;20048;-57
2023/06/04 10:41:26;;;;;;;5.72;3.00;;;19.10;98.70;;;;;;5068176;28;20067;-58
2023/06/04 10:44:01;;;;;;;5.53;2.72;;;19.30;98.10;;;;;;5064888;28;20053;-58
2023/06/04 10:46:42;;;;;;;5.20;2.40;;;19.40;97.00;;;;;;5066450;28;20044;-58
2023/06/04 10:49:11;;;;;;;7.15;2.30;;;19.60;97.10;;;;;;5066552;28;20499;-58
2023/06/04 10:51:40;;;;;;;7.03;2.93;;;19.70;96.10;;;;;;5051127;28;20056;-59
2023/06/04 10:54:08;;;;;;;6.68;2.35;;;19.70;96.30;;;;;;5065970;28;20049;-57
2023/06/04 10:56:37;;;;;;;7.57;2.67;;;19.80;95.80;;;;;;5052403;28;20056;-57
2023/06/04 10:59:16;;;;;;;4.60;2.70;;;19.90;95.50;;;;;;5064193;28;20044;-58
2023/06/04 11:01:44;;;;;;;6.13;2.47;;;20.00;95.70;;;;;;5065614;28;20043;-59
2023/06/04 11:04:25;;;;;;;3.95;2.42;;;20.20;95.20;;;;;;5065101;28;20056;-59
2023/06/04 11:07:10;;;;;;;6.35;2.40;;;20.30;95.50;;;;;;5064342;28;20037;-58
2023/06/04 11:09:48;;;;;;;6.65;2.60;;;20.60;93.50;;;;;;5068314;28;20045;-58
2023/06/04 11:12:16;;;;;;;8.73;2.47;;;20.60;93.70;;;;;;5066922;28;20048;-59
2023/06/04 11:14:58;;;;;;;9.85;3.03;;;20.60;93.90;;;;;;5075561;28;20056;-59
2023/06/04 11:17:26;;;;;;;5.78;2.47;;;20.80;93.90;;;;;;5067320;28;20056;-58
2023/06/04 11:19:55;;;;;;;5.95;2.13;;;20.90;93.10;;;;;;5055221;28;20048;-58
2023/06/04 11:22:24;;;;;;;5.75;1.90;;;21.00;93.40;;;;;;5062268;28;20056;-59
2023/06/04 11:25:01;;;;;;;10.85;3.42;;;21.10;92.60;;;;;;5066129;28;20041;-59
2023/06/04 11:27:34;;;;;;;4.55;2.50;;;21.30;91.40;;;;;;5064652;28;20818;-59
2023/06/04 11:30:08;;;;;;;6.45;2.53;;;21.20;91.50;;;;;;5062785;28;20525;-59
2023/06/04 11:32:36;;;;;;;5.20;1.92;;;21.30;91.50;;;;;;5051592;28;20053;-58
2023/06/04 11:35:06;;;;;;;5.53;2.08;;;21.30;91.00;;;;;;5061869;28;20491;-57
2023/06/04 11:37:35;;;;;;;10.32;2.85;;;21.30;91.00;;;;;;5043522;28;20064;-59
2023/06/04 11:40:26;;;;;;;8.38;3.08;;;21.40;90.70;;;;;;5059676;28;20047;-58
2023/06/04 11:42:58;;;;;;;5.28;2.20;;;21.70;90.40;;;;;;5067741;28;20503;-59
2023/06/04 11:45:29;;;;;;;4.30;2.33;;;21.80;89.10;;;;;;5059558;28;20033;-58
2023/06/04 11:47:57;;;;;;;5.15;2.40;;;21.90;87.20;;;;;;5059130;28;20040;-58
2023/06/04 11:50:29;;;;;;;4.32;2.30;;;21.90;87.90;;;;;;5057098;28;20043;-59
2023/06/04 11:52:58;;;;;;;3.17;2.10;;;22.20;87.10;;;;;;5052221;28;20049;-59
2023/06/04 11:55:26;;;;;;;7.53;2.80;;;22.20;87.60;;;;;;5046261;28;20395;-59
2023/06/04 11:57:55;;;;;;;6.07;2.38;;;22.50;85.10;;;;;;5045834;28;20064;-59
2023/06/04 12:00:23;;;;;;;5.82;1.98;;;22.70;84.90;;;;;;5053005;28;20052;-59
2023/06/04 12:02:53;;;;;;;3.60;2.10;;;22.90;83.00;;;;;;5058679;28;20040;-58
2023/06/04 12:05:23;;;;;;;4.22;2.22;;;23.30;81.30;;;;;;5060213;28;20063;-59
2023/06/04 12:07:51;;;;;;;9.75;2.00;;;23.30;81.80;;;;;;5058953;28;20312;-61
2023/06/04 12:10:21;;;;;;;7.18;1.98;;;23.80;79.70;;;;;;5056935;28;20043;-58
2023/06/04 12:12:55;;;;;;;4.60;2.37;;;23.80;80.20;;;;;;5064954;28;20055;-58
2023/06/04 12:15:23;;;;;;;7.78;2.13;;;24.00;77.10;;;;;;5065164;28;20520;-58
2023/06/04 12:17:53;;;;;;;3.47;1.92;;;24.00;77.90;;;;;;5067331;28;20379;-59
2023/06/04 12:20:39;;;;;;;6.13;2.17;;;24.20;79.20;;;;;;5062496;28;20040;-57
2023/06/04 12:23:07;;;;;;;4.30;2.05;;;;;;;;;;5065295;28;20052;-58
2023/06/04 12:25:37;;;;;;;4.60;1.83;;;24.90;75.80;;;;;;5063537;28;20053;-59
2023/06/04 12:28:06;;;;;;;5.63;2.53;;;25.20;74.90;;;;;;5067095;28;20040;-58
2023/06/04 12:30:40;;;;;;;4.78;2.10;;;25.40;75.10;;;;;;5062111;28;20045;-59
2023/06/04 12:33:10;;;;;;;4.90;2.10;;;25.60;72.80;;;;;;5070476;28;20040;-60
2023/06/04 12:35:38;;;;;;;;;;;25.60;72.40;;;;;;5066245;28;20048;-59
2023/06/04 12:38:08;;;;;;;5.65;2.47;;;25.70;71.40;;;;;;5071965;28;20386;-60
2023/06/04 12:40:37;;;;;;;3.88;2.08;;;25.80;71.60;;;;;;5056817;28;20060;-59
2023/06/04 12:43:06;;;;;;;6.57;3.35;;;25.80;73.40;;;;;;5057952;28;20048;-60
2023/06/04 12:45:37;;;;;;;4.97;2.30;;;25.80;71.40;;;;;;5051433;28;20487;-60
2023/06/04 12:48:05;;;;;;;9.32;2.50;;;25.80;71.90;;;;;;5066837;28;20483;-58
2023/06/04 12:50:33;;;;;;;4.60;2.40;;;25.70;70.40;;;;;;5065033;28;20399;-59
2023/06/04 12:53:01;;;;;;;4.18;2.10;;;25.70;70.30;;;;;;5053915;28;20048;-59
2023/06/04 12:55:29;;;;;;;5.70;3.17;;;25.90;67.00;;;;;;5066066;28;20052;-60
2023/06/04 12:57:57;;;;;;;2.70;1.88;;;25.90;67.60;;;;;;5068891;28;20047;-58
2023/06/04 13:00:25;;;;;;;5.20;2.10;;;26.00;67.30;;;;;;5057598;28;20059;-60
2023/06/04 13:02:53;;;;;;;7.43;3.03;;;26.10;67.10;;;;;;5052435;28;20044;-59